createdAt,value
2022-11-24T00:00:27.254Z,68.39
2022-11-24T00:03:00.628Z,68.29
2022-11-24T00:05:34.307Z,68.38
2022-11-24T00:08:07.555Z,68.35
2022-11-24T00:10:41.980Z,68.47
2022-11-24T00:24:01.276Z,68.55
2022-11-24T00:26:36.172Z,68.64
2022-11-24T00:29:13.244Z,68.62
2022-11-24T00:31:46.531Z,68.64
2022-11-24T00:34:21.218Z,68.75
2022-11-24T00:36:54.426Z,68.49
2022-11-24T00:39:30.246Z,68.62
2022-11-24T00:52:40.221Z,68.49
2022-11-24T00:55:15.627Z,68.62
2022-11-24T01:00:19.054Z,68.67
2022-11-24T01:02:45.805Z,68.67
2022-11-24T01:05:26.246Z,68.53
2022-11-24T01:18:38.246Z,68.77
2022-11-24T01:21:11.826Z,68.67
2022-11-24T01:23:45.292Z,68.61
2022-11-24T01:26:21.036Z,68.58
2022-11-24T01:28:59.295Z,68.69
2022-11-24T01:45:41.331Z,68.66
2022-11-24T01:48:28.344Z,68.56
2022-11-24T01:51:10.125Z,68.67
2022-11-24T01:53:56.268Z,68.48
2022-11-24T01:56:33.055Z,68.52
2022-11-24T01:59:17.277Z,68.63
2022-11-24T02:12:31.373Z,68.59
2022-11-24T02:15:06.043Z,68.57
2022-11-24T02:17:39.207Z,68.53
2022-11-24T02:20:14.622Z,68.55
2022-11-24T02:22:59.234Z,68.58
2022-11-24T02:39:25.241Z,68.40
2022-11-24T02:42:12.213Z,68.56
2022-11-24T02:44:53.762Z,68.51
2022-11-24T02:47:35.206Z,68.44
2022-11-24T02:50:09.061Z,68.45
2022-11-24T03:06:23.244Z,68.34
2022-11-24T03:08:56.477Z,68.42
2022-11-24T03:11:30.230Z,68.25
2022-11-24T03:14:03.516Z,68.31
2022-11-24T03:16:38.235Z,68.33
2022-11-24T03:19:11.682Z,68.26
2022-11-24T03:31:24.275Z,68.22
2022-11-24T03:34:04.226Z,68.14
2022-11-24T03:36:37.687Z,68.24
2022-11-24T03:39:11.286Z,68.07
2022-11-24T03:41:45.990Z,67.93
2022-11-24T03:44:19.223Z,67.83
2022-11-24T03:57:49.201Z,67.27
2022-11-24T04:00:22.647Z,67.33
2022-11-24T04:02:56.267Z,67.21
2022-11-24T04:05:29.365Z,67.23
2022-11-24T04:08:03.202Z,67.24
2022-11-24T04:10:38.616Z,67.06
2022-11-24T04:13:19.184Z,67.08
2022-11-24T04:26:29.193Z,66.73
2022-11-24T04:29:04.289Z,66.70
2022-11-24T04:31:37.274Z,66.74
2022-11-24T04:34:10.843Z,66.50
2022-11-24T04:36:44.187Z,66.87
2022-11-24T04:39:24.291Z,66.64
2022-11-24T04:52:24.154Z,66.59
2022-11-24T04:55:04.205Z,66.26
2022-11-24T04:57:38.054Z,66.47
2022-11-24T05:00:14.181Z,66.47
2022-11-24T05:02:47.383Z,66.28
2022-11-24T05:05:14.086Z,66.41
2022-11-24T05:18:13.143Z,66.36
2022-11-24T05:20:54.203Z,66.47
2022-11-24T05:23:27.888Z,66.29
2022-11-24T05:26:05.174Z,66.24
2022-11-24T05:28:38.362Z,66.33
2022-11-24T05:31:12.212Z,66.33
2022-11-24T05:33:47.450Z,66.39
2022-11-24T05:46:35.182Z,66.24
2022-11-24T05:49:17.188Z,66.29
2022-11-24T05:51:50.334Z,66.22
2022-11-24T05:54:24.192Z,66.40
2022-11-24T05:56:57.333Z,66.45
2022-11-24T05:59:24.023Z,66.30
2022-11-24T06:12:21.124Z,66.36
2022-11-24T06:15:01.190Z,66.13
2022-11-24T06:17:34.680Z,66.38
2022-11-24T06:20:08.162Z,66.23
2022-11-24T06:22:41.480Z,66.32
2022-11-24T06:25:16.909Z,66.32
2022-11-24T06:38:29.161Z,66.33
2022-11-24T06:41:13.042Z,66.37
2022-11-24T06:43:53.156Z,66.52
2022-11-24T06:46:26.389Z,66.44
2022-11-24T06:48:53.104Z,66.42
2022-11-24T06:51:33.153Z,66.48
2022-11-24T06:54:11.728Z,66.48
2022-11-24T07:07:07.166Z,66.18
2022-11-24T07:09:49.219Z,66.21
2022-11-24T07:12:22.334Z,66.21
2022-11-24T07:14:48.996Z,66.29
2022-11-24T07:17:29.139Z,66.23
2022-11-24T07:20:02.675Z,66.30
2022-11-24T07:32:52.120Z,66.45
2022-11-24T07:35:32.146Z,66.49
2022-11-24T07:38:05.380Z,66.42
2022-11-24T07:40:32.045Z,66.43
2022-11-24T07:43:17.141Z,66.69
2022-11-24T07:45:53.745Z,66.46
2022-11-24T07:58:48.343Z,66.70
2022-11-24T08:01:32.168Z,66.70
2022-11-24T08:04:05.420Z,66.85
2022-11-24T08:06:44.497Z,66.67
2022-11-24T08:09:20.350Z,66.68
2022-11-24T08:11:53.134Z,66.85
2022-11-24T08:14:28.366Z,66.73
2022-11-24T08:27:16.105Z,66.93
2022-11-24T08:29:58.152Z,66.76
2022-11-24T08:32:31.370Z,66.92
2022-11-24T08:35:12.986Z,66.75
2022-11-24T08:37:54.679Z,66.83
2022-11-24T08:40:28.289Z,66.96
2022-11-24T08:53:20.092Z,67.31
2022-11-24T08:56:00.130Z,67.42
2022-11-24T08:58:34.221Z,67.44
2022-11-24T09:01:12.222Z,67.48
2022-11-24T09:03:50.651Z,67.59
2022-11-24T09:20:16.112Z,67.66
2022-11-24T09:22:49.268Z,68.13
2022-11-24T09:25:23.120Z,67.95
2022-11-24T09:27:56.354Z,68.30
2022-11-24T09:30:23.071Z,68.18
2022-11-24T09:33:03.132Z,68.37
2022-11-24T09:35:39.043Z,68.54
2022-11-24T09:46:04.348Z,68.91
2022-11-24T09:48:41.334Z,69.09
2022-11-24T09:51:30.107Z,69.02
2022-11-24T09:54:13.010Z,68.94
2022-11-24T09:56:55.160Z,69.01
2022-11-24T09:59:43.977Z,69.08
2022-11-24T10:13:01.076Z,69.43
2022-11-24T10:15:54.160Z,69.45
2022-11-24T10:18:45.517Z,69.41
2022-11-24T10:21:52.106Z,69.51
2022-11-24T10:24:53.807Z,69.60
2022-11-24T10:41:26.169Z,70.35
2022-11-24T10:43:59.344Z,70.28
2022-11-24T10:46:39.321Z,70.37
2022-11-24T10:49:22.762Z,70.68
2022-11-24T10:52:13.111Z,70.62
2022-11-24T10:54:58.228Z,70.59
2022-11-24T11:07:54.217Z,71.00
2022-11-24T11:10:34.172Z,71.03
2022-11-24T11:13:25.704Z,71.19
2022-11-24T11:16:06.139Z,71.34
2022-11-24T11:18:39.390Z,71.16
2022-11-24T11:34:57.100Z,71.00
2022-11-24T11:37:33.629Z,71.21
2022-11-24T11:40:23.207Z,71.25
2022-11-24T11:43:04.109Z,71.27
2022-11-24T11:45:52.299Z,71.28
2022-11-24T11:59:37.112Z,71.36
2022-11-24T12:03:01.315Z,71.44
2022-11-24T12:05:57.089Z,71.60
2022-11-24T12:09:18.033Z,71.67
2022-11-24T12:12:00.112Z,71.62
2022-11-24T12:14:50.476Z,71.67
2022-11-24T12:27:56.054Z,71.72
2022-11-24T12:30:49.216Z,71.58
2022-11-24T12:34:01.195Z,71.52
2022-11-24T12:37:35.057Z,71.90
2022-11-24T12:40:17.225Z,71.84
2022-11-24T12:53:23.043Z,71.72
2022-11-24T12:56:20.059Z,71.52
2022-11-24T12:59:14.769Z,71.61
2022-11-24T13:02:09.154Z,71.89
2022-11-24T13:04:53.701Z,71.51
2022-11-24T13:21:54.077Z,71.67
2022-11-24T13:24:30.550Z,71.55
2022-11-24T13:27:58.056Z,71.84
2022-11-24T13:31:10.671Z,71.82
2022-11-24T13:33:51.056Z,72.12
2022-11-24T13:47:08.133Z,72.15
2022-11-24T13:49:43.732Z,72.14
2022-11-24T13:52:55.753Z,72.35
2022-11-24T13:55:34.782Z,72.29
2022-11-24T13:58:40.108Z,72.23
2022-11-24T14:14:34.385Z,72.48
2022-11-24T14:17:24.092Z,72.40
2022-11-24T14:19:58.275Z,72.43
2022-11-24T14:22:41.089Z,72.44
2022-11-24T14:25:27.389Z,72.68
2022-11-24T14:28:07.096Z,72.53
2022-11-24T14:30:42.210Z,72.48
2022-11-24T14:40:05.056Z,72.63
2022-11-24T14:42:39.099Z,72.54
2022-11-24T14:45:24.062Z,72.41
2022-11-24T14:47:59.174Z,72.56
2022-11-24T14:50:33.156Z,72.46
2022-11-24T14:53:15.961Z,72.48
2022-11-24T15:06:44.031Z,72.51
2022-11-24T15:09:33.094Z,72.67
2022-11-24T15:12:17.752Z,72.66
2022-11-24T15:15:00.061Z,72.60
2022-11-24T15:17:33.860Z,72.51
2022-11-24T15:20:16.043Z,72.41
2022-11-24T15:33:30.073Z,72.75
2022-11-24T15:36:04.451Z,72.84
2022-11-24T15:38:38.020Z,72.63
2022-11-24T15:41:19.396Z,72.80
2022-11-24T15:43:59.040Z,72.51
2022-11-24T15:46:32.237Z,72.37
2022-11-24T15:49:08.040Z,72.55
2022-11-24T16:02:18.815Z,72.69
2022-11-24T16:04:54.159Z,72.83
2022-11-24T16:07:27.048Z,72.77
2022-11-24T16:10:00.201Z,73.03
2022-11-24T16:12:26.853Z,72.79
2022-11-24T16:15:08.037Z,72.75
2022-11-24T16:28:20.033Z,72.81
2022-11-24T16:30:53.176Z,72.88
2022-11-24T16:33:19.897Z,73.03
2022-11-24T16:36:00.039Z,72.88
2022-11-24T16:38:33.208Z,73.10
2022-11-24T16:40:59.868Z,73.02
2022-11-24T16:54:03.992Z,72.96
2022-11-24T16:56:44.014Z,73.02
2022-11-24T16:59:17.616Z,73.08
2022-11-24T17:01:51.130Z,73.08
2022-11-24T17:04:24.460Z,73.15
2022-11-24T17:06:59.293Z,73.16
2022-11-24T17:09:40.161Z,73.10
2022-11-24T17:22:36.032Z,72.81
2022-11-24T17:25:19.027Z,72.83
2022-11-24T17:27:52.768Z,72.95
2022-11-24T17:30:26.044Z,73.22
2022-11-24T17:32:59.181Z,73.19
2022-11-24T17:35:25.828Z,73.34
2022-11-24T17:48:23.008Z,73.17
2022-11-24T17:51:07.016Z,73.01
2022-11-24T17:53:43.121Z,72.93
2022-11-24T17:56:22.004Z,72.84
2022-11-24T17:58:58.201Z,72.92
2022-11-24T18:15:14.017Z,73.01
2022-11-24T18:17:47.207Z,73.18
2022-11-24T18:20:21.038Z,73.06
2022-11-24T18:23:09.569Z,73.20
2022-11-24T18:25:50.004Z,72.95
2022-11-24T18:28:23.687Z,73.00
2022-11-24T18:30:59.013Z,72.99
2022-11-24T18:40:46.016Z,73.15
2022-11-24T18:43:26.025Z,73.40
2022-11-24T18:46:04.585Z,73.04
2022-11-24T18:48:44.999Z,73.25
2022-11-24T18:51:18.609Z,73.37
2022-11-24T19:07:28.013Z,72.90
2022-11-24T19:10:01.179Z,72.92
2022-11-24T19:12:27.864Z,72.89
2022-11-24T19:15:08.116Z,73.02
2022-11-24T19:17:41.220Z,73.04
2022-11-24T19:20:16.000Z,73.14
2022-11-24T19:34:12.023Z,73.36
2022-11-24T19:36:45.156Z,73.37
2022-11-24T19:39:21.999Z,73.20
2022-11-24T19:41:55.260Z,73.39
2022-11-24T19:44:21.947Z,73.25
2022-11-24T19:47:01.995Z,73.46
2022-11-24T19:49:37.380Z,73.54
2022-11-24T20:02:26.023Z,73.28
2022-11-24T20:05:07.972Z,73.38
2022-11-24T20:07:41.182Z,73.43
2022-11-24T20:10:15.986Z,73.18
2022-11-24T20:12:49.148Z,73.17
2022-11-24T20:15:24.028Z,73.38
2022-11-24T20:28:35.970Z,73.49
2022-11-24T20:31:13.641Z,73.41
2022-11-24T20:33:53.984Z,73.52
2022-11-24T20:36:30.631Z,73.36
2022-11-24T20:39:14.973Z,73.26
2022-11-24T20:55:51.944Z,73.60
2022-11-24T20:58:31.981Z,73.78
2022-11-24T21:01:08.551Z,73.76
2022-11-24T21:03:49.960Z,73.84
2022-11-24T21:06:23.770Z,73.93
2022-11-24T21:09:03.266Z,73.92
2022-11-24T21:22:15.965Z,73.96
2022-11-24T21:24:49.119Z,74.04
2022-11-24T21:27:15.764Z,73.96
2022-11-24T21:29:55.984Z,74.22
2022-11-24T21:32:29.131Z,73.96
2022-11-24T21:34:55.780Z,73.91
2022-11-24T21:47:58.928Z,73.77
2022-11-24T21:50:38.999Z,73.78
2022-11-24T21:53:12.240Z,73.74
2022-11-24T21:55:38.954Z,73.75
2022-11-24T21:58:18.984Z,73.83
2022-11-24T22:00:52.415Z,73.77
2022-11-24T22:17:08.107Z,73.57
2022-11-24T22:19:41.457Z,73.64
2022-11-24T22:22:15.005Z,73.45
2022-11-24T22:24:48.144Z,73.70
2022-11-24T22:27:14.803Z,73.77
2022-11-24T22:29:54.931Z,73.92
2022-11-24T22:43:07.010Z,74.09
2022-11-24T22:45:40.321Z,74.19
2022-11-24T22:48:13.941Z,74.02
2022-11-24T22:50:47.126Z,74.00
2022-11-24T22:53:13.771Z,74.00
2022-11-24T22:55:53.938Z,73.95
2022-11-24T23:09:07.016Z,73.94
2022-11-24T23:11:40.915Z,74.15
2022-11-24T23:14:19.927Z,74.14
2022-11-24T23:16:53.848Z,74.20
2022-11-24T23:19:28.197Z,74.31
2022-11-24T23:36:06.919Z,74.50
2022-11-24T23:38:47.933Z,74.50
2022-11-24T23:41:24.915Z,74.59
2022-11-24T23:44:04.951Z,74.29
2022-11-24T23:46:38.235Z,74.13
2022-11-24T23:49:11.972Z,74.36
